Albany, Pennsylvania
Current Conditions -  °F | °C
As of 10:54 AM on Friday 21 Nov 2014 (Local Time) from KRDG Reporting Station
Clear Clear  
Wind Chill: 20°   Ceiling: Unl
Heat Index: 33°   Visibility: 10mi
Dew Point:   Wind: 24mph
Humidity: 35%   Direction: 320°NW
Pressure: 30.36"   Gusts: NA
Location:  40.6329°N, 75.8768°W
Report Text: KRDG 211554Z AUTO 32021KT 10SM CLR 01/M13 A3036 RMK AO2 PK WND 30026/1513 SLP291 T00061133
Loading
Personal Weather Stations






























Interactive Weather Map New forecast layout! Learn more

10-Day Weather Forecast

Advertisements
Track Severe Weather on mobile